createdAt,value
2022-11-13T00:01:21.201Z,3.45
2022-11-13T00:11:19.389Z,3.55
2022-11-13T00:21:19.688Z,6.612500000000001
2022-11-13T00:31:16.746Z,3.0375
2022-11-13T00:41:16.502Z,5.65
2022-11-13T00:51:16.488Z,8.4125
2022-11-13T01:01:19.080Z,4.6
2022-11-13T01:11:19.313Z,4.512499999999999
2022-11-13T01:21:18.526Z,4.9625
2022-11-13T01:31:20.458Z,5
2022-11-13T01:41:23.216Z,2.6875
2022-11-13T01:51:21.808Z,3.075
2022-11-13T02:01:17.085Z,4.1625
2022-11-13T02:11:16.938Z,4.5875
2022-11-13T02:21:28.524Z,3.975
2022-11-13T02:31:16.004Z,3.4625
2022-11-13T02:41:15.641Z,2.3625000000000003
2022-11-13T02:51:16.760Z,2.425
2022-11-13T03:01:16.918Z,3.7125000000000004
2022-11-13T03:11:17.129Z,4.3
2022-11-13T03:21:16.895Z,4.75
2022-11-13T03:31:16.683Z,4.825
2022-11-13T03:41:16.161Z,4.875
2022-11-13T03:51:16.043Z,4.1875
2022-11-13T04:01:16.017Z,3.45
2022-11-13T04:11:16.910Z,5.0875
2022-11-13T04:21:16.751Z,5.875
2022-11-13T04:31:16.504Z,4.35
2022-11-13T04:51:16.998Z,3.5
2022-11-13T05:01:16.487Z,5.1625
2022-11-13T05:11:17.099Z,3.4125
2022-11-13T05:21:16.838Z,3.9250000000000003
2022-11-13T05:31:17.483Z,4.199999999999999
2022-11-13T05:41:18.454Z,3.8749999999999996
2022-11-13T05:51:18.189Z,8.2375
2022-11-13T06:01:19.453Z,3.125
2022-11-13T06:11:19.346Z,2.5875
2022-11-13T06:21:18.531Z,4.1
2022-11-13T06:31:19.278Z,5.975
2022-11-13T06:41:19.012Z,3.325
2022-11-13T06:51:19.311Z,5.4125
2022-11-13T07:01:19.015Z,3.5625
2022-11-13T07:11:18.539Z,3.225
2022-11-13T07:21:16.657Z,3.1625000000000005
2022-11-13T07:31:17.892Z,4.125
2022-11-13T07:41:16.431Z,3.55
2022-11-13T07:51:17.727Z,3.8625
2022-11-13T08:01:16.883Z,2.575
2022-11-13T08:11:17.110Z,3.5999999999999996
2022-11-13T08:21:16.000Z,3.825
2022-11-13T08:31:16.405Z,2.9000000000000004
2022-11-13T08:41:15.703Z,2.4875
2022-11-13T08:51:16.202Z,2.8
2022-11-13T09:01:18.051Z,2.6125
2022-11-13T09:11:17.146Z,4.35
2022-11-13T09:21:16.488Z,5.85
2022-11-13T09:31:16.982Z,4.65
2022-11-13T09:41:20.262Z,4.8
2022-11-13T09:51:21.981Z,4.8625
2022-11-13T10:01:47.482Z,2.9375
2022-11-13T10:11:28.698Z,5
2022-11-13T10:21:26.260Z,3.7375000000000003
2022-11-13T10:31:15.654Z,3.2125
2022-11-13T10:41:18.856Z,7.125
2022-11-13T10:51:23.183Z,3.9125
2022-11-13T11:01:22.096Z,3.025
2022-11-13T11:12:28.938Z,1.8875
2022-11-13T11:21:21.760Z,4.7
2022-11-13T11:31:22.314Z,2.925
2022-11-13T11:41:21.159Z,3.6625
2022-11-13T11:51:24.777Z,2.8625
2022-11-13T12:11:26.763Z,2.7749999999999995
2022-11-13T12:21:23.685Z,3.3625
2022-11-13T12:31:31.019Z,4.3625
2022-11-13T12:41:25.843Z,3.9875
2022-11-13T12:51:17.708Z,4.125
2022-11-13T13:01:20.108Z,3.025
2022-11-13T13:11:24.974Z,5.025
2022-11-13T13:21:18.264Z,2.8625
2022-11-13T13:31:27.662Z,5.7875
2022-11-13T13:41:30.946Z,3.9250000000000003
2022-11-13T13:51:23.396Z,4.4625
2022-11-13T14:01:28.126Z,3.8625
2022-11-13T14:11:20.788Z,4.0125
2022-11-13T14:21:21.177Z,4.4125
2022-11-13T14:31:16.937Z,3.8875
2022-11-13T14:41:23.656Z,3.7249999999999996
2022-11-13T14:51:23.523Z,3.4875
2022-11-13T15:01:18.847Z,5.9
2022-11-13T15:11:18.266Z,5.6
2022-11-13T15:21:16.944Z,4.7124999999999995
2022-11-13T15:31:20.258Z,3.5125
2022-11-13T15:41:19.647Z,10.875
2022-11-13T15:51:20.541Z,6.824999999999999
2022-11-13T16:01:17.295Z,7.425
2022-11-13T16:11:17.702Z,6.9375
2022-11-13T16:21:17.653Z,13.175
2022-11-13T16:31:16.718Z,8.649999999999999
2022-11-13T16:41:17.110Z,6.887499999999999
2022-11-13T16:51:16.826Z,7.775
2022-11-13T17:01:18.968Z,10.475
2022-11-13T17:11:16.012Z,6.7875
2022-11-13T17:21:16.613Z,7.2124999999999995
2022-11-13T17:31:16.771Z,9.3375
2022-11-13T17:51:16.440Z,7.499999999999999
2022-11-13T18:01:18.694Z,11.15
2022-11-13T18:11:22.457Z,12.05
2022-11-13T18:21:22.814Z,14.3625
2022-11-13T18:31:18.314Z,17.625
2022-11-13T18:41:18.252Z,14.375
2022-11-13T18:51:19.295Z,15.6125
2022-11-13T19:01:22.293Z,14.662500000000001
2022-11-13T19:11:17.542Z,17.375
2022-11-13T19:21:17.664Z,10
2022-11-13T19:31:18.807Z,13.4125
2022-11-13T19:41:15.976Z,13.375
2022-11-13T19:51:19.063Z,10.5
2022-11-13T20:01:18.051Z,13.100000000000001
2022-11-13T20:11:16.071Z,8.7125
2022-11-13T20:21:22.727Z,20.9875
2022-11-13T20:31:20.050Z,15.35
2022-11-13T20:41:16.946Z,11.775
2022-11-13T20:51:19.740Z,11.625
2022-11-13T21:01:18.855Z,10.575
2022-11-13T21:11:18.423Z,9.4625
2022-11-13T21:21:18.651Z,18.275
2022-11-13T21:31:18.432Z,7.525
2022-11-13T21:41:25.300Z,9.2625
2022-11-13T21:51:16.380Z,7.299999999999999
2022-11-13T22:01:17.621Z,5.375
2022-11-13T22:11:15.800Z,6.075
2022-11-13T22:21:16.484Z,6.362500000000001
2022-11-13T22:31:18.146Z,6.3125
2022-11-13T22:41:23.304Z,4.325
2022-11-13T22:51:19.032Z,4.324999999999999
2022-11-13T23:01:20.289Z,4.625
2022-11-13T23:11:19.026Z,5.1875
2022-11-13T23:21:16.569Z,3.4625
2022-11-13T23:31:16.378Z,5.7250000000000005
2022-11-13T23:41:16.370Z,3.225
2022-11-13T23:51:16.418Z,3.125
